createdAt,value
2022-11-04T00:02:11.630Z,81.05
2022-11-04T00:04:38.300Z,80.26
2022-11-04T00:07:25.218Z,80.34
2022-11-04T00:09:56.371Z,80.77
2022-11-04T00:12:25.746Z,79.81
2022-11-04T00:14:53.229Z,80.56
2022-11-04T00:17:20.152Z,80.91
2022-11-04T00:20:08.267Z,80.49
2022-11-04T00:22:54.756Z,80.86
2022-11-04T00:28:33.514Z,79.95
2022-11-04T00:31:23.181Z,79.89
2022-11-04T00:33:51.356Z,80.05
2022-11-04T00:36:18.736Z,79.71
2022-11-04T00:38:46.282Z,79.73
2022-11-04T00:41:28.969Z,80.21
2022-11-04T00:44:02.257Z,80.02
2022-11-04T00:46:31.873Z,80.46
2022-11-04T00:48:58.487Z,79.75
2022-11-04T00:51:26.298Z,80.46
2022-11-04T00:53:53.304Z,80.39
2022-11-04T00:56:19.901Z,79.82
2022-11-04T00:58:48.273Z,80.09
2022-11-04T01:01:19.632Z,80.20
2022-11-04T01:03:48.443Z,79.70
2022-11-04T01:06:16.006Z,80.52
2022-11-04T01:08:43.653Z,79.50
2022-11-04T01:11:11.072Z,79.89
2022-11-04T01:13:38.570Z,79.57
2022-11-04T01:16:08.053Z,81.12
2022-11-04T01:18:35.558Z,81.37
2022-11-04T01:21:03.911Z,80.96
2022-11-04T01:23:30.693Z,81.05
2022-11-04T01:25:57.376Z,80.65
2022-11-04T01:28:25.090Z,81.58
2022-11-04T01:30:51.672Z,81.01
2022-11-04T01:33:18.253Z,80.66
2022-11-04T01:35:45.660Z,80.83
2022-11-04T01:38:12.331Z,81.03
2022-11-04T01:40:40.603Z,80.58
2022-11-04T01:43:17.343Z,80.79
2022-11-04T01:45:48.223Z,80.88
2022-11-04T01:48:22.366Z,81.30
2022-11-04T01:50:50.846Z,81.32
2022-11-04T01:53:27.397Z,81.17
2022-11-04T01:55:59.357Z,80.47
2022-11-04T01:58:31.427Z,81.19
2022-11-04T02:00:58.210Z,80.34
2022-11-04T02:03:37.404Z,79.86
2022-11-04T02:06:05.661Z,79.12
2022-11-04T02:08:32.469Z,78.93
2022-11-04T02:11:01.809Z,78.48
2022-11-04T02:13:30.618Z,78.59
2022-11-04T02:16:06.419Z,78.18
2022-11-04T02:18:39.799Z,78.34
2022-11-04T02:21:45.166Z,77.91
2022-11-04T02:24:43.017Z,78.17
2022-11-04T02:27:22.429Z,78.88
2022-11-04T02:29:56.871Z,79.38
2022-11-04T02:32:58.866Z,78.98
2022-11-04T02:35:37.416Z,79.45
2022-11-04T02:38:22.849Z,79.95
2022-11-04T02:41:27.384Z,79.19
2022-11-04T02:44:12.874Z,79.38
2022-11-04T02:46:48.428Z,79.22
2022-11-04T02:49:25.941Z,79.87
2022-11-04T02:52:16.491Z,79.21
2022-11-04T02:54:54.225Z,79.21
2022-11-04T02:57:26.296Z,79.67
2022-11-04T03:00:01.485Z,79.36
2022-11-04T03:02:40.880Z,80.21
2022-11-04T03:05:13.501Z,79.94
2022-11-04T03:07:44.085Z,80.01
2022-11-04T03:10:43.324Z,80.47
2022-11-04T03:13:27.342Z,80.16
2022-11-04T03:15:59.970Z,80.15
2022-11-04T03:18:37.146Z,80.54
2022-11-04T03:21:10.317Z,80.37
2022-11-04T03:23:37.640Z,79.85
2022-11-04T03:26:22.024Z,80.80
2022-11-04T03:29:25.079Z,80.34
2022-11-04T03:32:13.583Z,80.46
2022-11-04T03:34:40.583Z,80.01
2022-11-04T03:37:07.277Z,79.20
2022-11-04T03:39:35.006Z,79.68
2022-11-04T03:42:20.443Z,80.76
2022-11-04T03:44:53.562Z,80.42
2022-11-04T03:47:23.185Z,79.77
2022-11-04T03:49:52.552Z,80.11
2022-11-04T03:52:19.929Z,79.09
2022-11-04T03:54:47.644Z,79.10
2022-11-04T03:57:24.069Z,79.94
2022-11-04T03:59:59.759Z,79.60
2022-11-04T04:03:13.857Z,79.34
2022-11-04T04:05:53.024Z,79.54
2022-11-04T04:08:31.598Z,80.57
2022-11-04T04:11:10.717Z,80.58
2022-11-04T04:13:47.598Z,80.63
2022-11-04T04:16:27.087Z,80.68
2022-11-04T04:19:37.029Z,80.13
2022-11-04T04:22:12.362Z,79.83
2022-11-04T04:25:02.203Z,80.05
2022-11-04T04:27:31.715Z,79.74
2022-11-04T04:30:11.107Z,79.83
2022-11-04T04:32:42.294Z,79.62
2022-11-04T04:35:28.642Z,79.40
2022-11-04T04:38:19.967Z,80.07
2022-11-04T04:41:13.167Z,79.10
2022-11-04T04:44:01.256Z,79.86
2022-11-04T04:46:31.437Z,78.70
2022-11-04T04:49:08.037Z,79.38
2022-11-04T04:51:39.299Z,79.13
2022-11-04T04:54:05.979Z,79.32
2022-11-04T04:56:32.594Z,79.14
2022-11-04T04:58:59.348Z,79.51
2022-11-04T05:01:26.068Z,79.41
2022-11-04T05:03:52.792Z,78.59
2022-11-04T05:06:19.427Z,78.14
2022-11-04T05:08:46.841Z,78.30
2022-11-04T05:11:13.571Z,79.09
2022-11-04T05:13:41.020Z,78.21
2022-11-04T05:16:10.292Z,79.50
2022-11-04T05:18:37.838Z,79.12
2022-11-04T05:21:07.383Z,78.54
2022-11-04T05:23:36.814Z,78.47
2022-11-04T05:26:03.533Z,78.03
2022-11-04T05:28:30.728Z,79.06
2022-11-04T05:30:57.777Z,77.91
2022-11-04T05:33:24.368Z,77.97
2022-11-04T05:35:51.016Z,78.60
2022-11-04T05:38:17.588Z,77.85
2022-11-04T05:40:44.163Z,77.98
2022-11-04T05:43:11.963Z,77.29
2022-11-04T05:45:41.609Z,75.95
2022-11-04T05:48:08.274Z,76.73
2022-11-04T05:50:35.030Z,76.62
2022-11-04T05:53:02.023Z,76.73
2022-11-04T05:55:28.942Z,76.86
